Time;durP1;ratioP1;P1;durP2;ratioP2;P2;SDS_P1;SDS_P2;PMS_P1;PMS_P2;Temp;Humidity;BMP_temperature;BMP_pressure;BME280_temperature;BME280_humidity;BME280_pressure;Samples;Min_cycle;Max_cycle;Signal;HPM_P1;HPM_P2
2022/03/26 00:01:50;;;;;;;44.83;25.80;;;;;;;;;;4948468;28;20590;-78
2022/03/26 00:04:15;;;;;;;38.30;23.98;;;;;;;;;;4963297;28;20043;-78
2022/03/26 00:06:40;;;;;;;42.47;26.02;;;;;;;;;;4965541;28;20039;-77
2022/03/26 00:09:06;;;;;;;37.42;23.95;;;;;;;;;;4954353;28;20031;-77
2022/03/26 00:11:31;;;;;;;38.25;24.95;;;;;;;;;;4963618;28;20586;-78
2022/03/26 00:13:56;;;;;;;40.28;25.73;;;;;;;;;;4947614;28;20118;-79
2022/03/26 00:16:22;;;;;;;41.72;25.23;;;;;;;;;;4947386;28;20178;-79
2022/03/26 00:18:47;;;;;;;41.90;25.48;;;;;;;;;;4962497;28;20526;-79
2022/03/26 00:21:12;;;;;;;37.15;24.92;;;;;;;;;;4960392;28;20153;-79
2022/03/26 00:23:38;;;;;;;40.05;25.38;;;;;;;;;;4945411;28;20142;-79
2022/03/26 00:26:03;;;;;;;38.38;24.63;;;;;;;;;;4948967;28;20041;-79
2022/03/26 00:28:29;;;;;;;36.65;24.45;;;;;;;;;;4949893;28;20049;-80
2022/03/26 00:30:54;;;;;;;35.85;23.88;;;;;;;;;;4959223;28;20031;-79
2022/03/26 00:33:20;;;;;;;37.90;23.95;;;;;;;;;;4963695;28;20061;-78
2022/03/26 00:35:46;;;;;;;37.40;23.42;;;;;;;;;;4945727;28;20114;-78
2022/03/26 00:38:12;;;;;;;39.10;23.63;;;;;;;;;;4959378;28;20058;-78
2022/03/26 00:40:37;;;;;;;42.38;25.17;;;;;;;;;;4946342;28;20043;-78
2022/03/26 00:43:03;;;;;;;34.22;23.80;;;;;;;;;;4944723;28;20030;-77
2022/03/26 00:45:29;;;;;;;38.97;24.35;;;;;;;;;;4945238;28;20043;-77
2022/03/26 00:47:55;;;;;;;35.78;23.10;;;;;;;;;;4948605;28;20035;-77
2022/03/26 00:50:21;;;;;;;37.03;23.88;;;;;;;;;;4963608;28;20077;-77
2022/03/26 00:52:47;;;;;;;39.33;23.95;;;;;;;;;;4947516;28;20062;-77
2022/03/26 00:55:12;;;;;;;39.08;23.75;;;;;;;;;;4951565;28;20371;-79
2022/03/26 00:57:38;;;;;;;38.97;24.15;;;;;;;;;;4949765;28;20042;-78
2022/03/26 01:00:05;;;;;;;36.15;23.83;;;;;;;;;;4943313;28;20062;-77
2022/03/26 01:02:30;;;;;;;38.67;23.67;;;;;;;;;;4959689;28;20722;-78
2022/03/26 01:04:56;;;;;;;36.63;23.48;;;;;;;;;;4961577;28;20127;-78
2022/03/26 01:07:21;;;;;;;36.88;22.75;;;;;;;;;;4953902;28;20035;-78
2022/03/26 01:09:46;;;;;;;34.97;23.83;;;;;;;;;;4943150;28;20494;-77
2022/03/26 01:12:12;;;;;;;34.75;22.05;;;;;;;;;;4946550;28;20118;-78
2022/03/26 01:14:38;;;;;;;37.33;22.73;;;;;;;;;;4961959;28;20050;-77
2022/03/26 01:17:03;;;;;;;37.72;23.70;;;;;;;;;;4958745;28;20042;-78
2022/03/26 01:19:28;;;;;;;36.50;23.92;;;;;;;;;;4960511;28;20481;-78
2022/03/26 01:21:54;;;;;;;36.83;23.60;;;;;;;;;;4952538;28;20035;-78
2022/03/26 01:24:19;;;;;;;39.47;24.17;;;;;;;;;;4963218;28;20085;-77
2022/03/26 01:26:44;;;;;;;39.38;24.02;;;;;;;;;;4942463;28;20097;-77
2022/03/26 01:29:10;;;;;;;38.05;24.58;;;;;;;;;;4944179;28;20085;-79
2022/03/26 01:31:35;;;;;;;37.00;23.52;;;;;;;;;;4947594;28;20567;-77
2022/03/26 01:34:01;;;;;;;44.13;23.90;;;;;;;;;;4945886;28;20054;-78
2022/03/26 01:36:26;;;;;;;36.67;23.70;;;;;;;;;;4960421;28;20061;-78
2022/03/26 01:38:52;;;;;;;39.38;24.00;;;;;;;;;;4963543;28;20487;-78
2022/03/26 01:41:19;;;;;;;38.40;24.70;;;;;;;;;;4947745;28;20034;-78
2022/03/26 01:43:46;;;;;;;44.42;24.58;;;;;;;;;;4960270;28;20083;-79
2022/03/26 01:46:11;;;;;;;38.28;23.58;;;;;;;;;;4960546;28;20087;-79
2022/03/26 01:48:37;;;;;;;37.53;24.02;;;;;;;;;;4948464;28;20043;-77
2022/03/26 01:51:14;;;;;;;37.65;23.88;;;;;;;;;;4946548;28;20398;-78
2022/03/26 01:53:41;;;;;;;37.58;24.83;;;;;;;;;;4962313;28;20094;-78
2022/03/26 01:56:06;;;;;;;39.33;24.23;;;;;;;;;;4963475;28;20046;-78
2022/03/26 01:58:33;;;;;;;40.15;24.15;;;;;;;;;;4958134;28;20684;-78
2022/03/26 02:00:58;;;;;;;36.93;24.37;;;;;;;;;;4944810;28;20045;-77
2022/03/26 02:03:23;;;;;;;42.55;24.35;;;;;;;;;;4957591;28;20130;-77
2022/03/26 02:05:49;;;;;;;40.10;24.45;;;;;;;;;;4957300;28;20498;-78
2022/03/26 02:08:14;;;;;;;41.50;25.60;;;;;;;;;;4945197;28;20097;-78
2022/03/26 02:10:40;;;;;;;38.90;24.08;;;;;;;;;;4960623;28;20480;-78
2022/03/26 02:13:05;;;;;;;38.00;24.20;;;;;;;;;;4948689;28;20046;-77
2022/03/26 02:15:30;;;;;;;41.53;24.92;;;;;;;;;;4957407;28;20446;-79
2022/03/26 02:17:56;;;;;;;36.20;23.40;;;;;;;;;;4958726;28;20107;-78
2022/03/26 02:20:22;;;;;;;39.70;24.85;;;;;;;;;;4947065;28;20046;-78
2022/03/26 02:22:48;;;;;;;39.70;24.60;;;;;;;;;;4949195;28;20106;-79
2022/03/26 02:25:13;;;;;;;40.95;26.02;;;;;;;;;;4944246;28;20114;-79
2022/03/26 02:27:39;;;;;;;40.03;25.52;;;;;;;;;;4962226;28;20106;-81
2022/03/26 02:30:06;;;;;;;40.38;24.67;;;;;;;;;;4956623;28;20081;-77
2022/03/26 02:32:32;;;;;;;42.55;25.83;;;;;;;;;;4966509;28;20044;-78
2022/03/26 02:34:57;;;;;;;37.70;24.65;;;;;;;;;;4945957;28;20039;-80
2022/03/26 02:37:23;;;;;;;44.90;24.88;;;;;;;;;;4959890;28;20034;-79
2022/03/26 02:39:49;;;;;;;43.05;25.50;;;;;;;;;;4963385;28;20136;-79
2022/03/26 02:42:14;;;;;;;38.72;24.25;;;;;;;;;;4950424;28;20082;-77
2022/03/26 02:44:40;;;;;;;38.05;25.02;;;;;;;;;;4962436;28;20070;-79
2022/03/26 02:47:09;;;;;;;42.50;25.42;;;;;;;;;;4950646;28;20171;-77
2022/03/26 02:49:34;;;;;;;42.40;25.92;;;;;;;;;;4946397;28;20030;-79
2022/03/26 02:52:00;;;;;;;38.58;25.73;;;;;;;;;;4962981;28;20489;-77
2022/03/26 02:54:25;;;;;;;40.80;25.90;;;;;;;;;;4946674;28;20589;-76
2022/03/26 02:56:51;;;;;;;43.00;24.25;;;;;;;;;;4945330;28;20039;-77
2022/03/26 02:59:18;;;;;;;35.70;24.77;;;;;;;;;;4966800;28;20058;-79
2022/03/26 03:01:44;;;;;;;38.90;24.98;;;;;;;;;;4959116;28;20521;-77
2022/03/26 03:04:09;;;;;;;41.10;26.15;;;;;;;;;;4959759;28;20310;-78
2022/03/26 03:06:35;;;;;;;44.65;25.05;;;;;;;;;;4950217;28;20039;-77
2022/03/26 03:09:04;;;;;;;38.17;23.92;;;;;;;;;;4947109;28;20026;-78
2022/03/26 03:11:30;;;;;;;40.80;25.17;;;;;;;;;;4946066;28;20043;-77
2022/03/26 03:13:55;;;;;;;38.47;25.63;;;;;;;;;;4944702;28;20400;-77
2022/03/26 03:16:21;;;;;;;42.17;25.45;;;;;;;;;;4946568;28;20042;-78
2022/03/26 03:18:46;;;;;;;38.92;24.90;;;;;;;;;;4944426;28;20505;-78
2022/03/26 03:21:11;;;;;;;36.83;24.95;;;;;;;;;;4961635;28;20122;-79
2022/03/26 03:23:37;;;;;;;43.92;25.98;;;;;;;;;;4947614;28;20620;-79
2022/03/26 03:26:02;;;;;;;41.63;25.38;;;;;;;;;;4959778;28;20034;-78
2022/03/26 03:28:27;;;;;;;42.00;25.40;;;;;;;;;;4965667;28;20035;-79
2022/03/26 03:30:53;;;;;;;41.58;26.17;;;;;;;;;;4953545;28;20495;-78
2022/03/26 03:33:18;;;;;;;44.38;26.60;;;;;;;;;;4950370;28;20067;-79
2022/03/26 03:35:43;;;;;;;43.40;25.73;;;;;;;;;;4943790;28;20070;-79
2022/03/26 03:38:08;;;;;;;41.95;25.27;;;;;;;;;;4961206;28;20109;-79
2022/03/26 03:40:34;;;;;;;44.53;26.45;;;;;;;;;;4949173;28;20038;-78
2022/03/26 03:42:59;;;;;;;45.38;25.90;;;;;;;;;;4961416;28;20043;-78
2022/03/26 03:45:25;;;;;;;41.20;25.23;;;;;;;;;;4952414;28;20117;-78
2022/03/26 03:47:50;;;;;;;40.42;24.90;;;;;;;;;;4950139;28;20043;-79
2022/03/26 03:50:16;;;;;;;41.85;24.90;;;;;;;;;;4945097;28;20511;-79
2022/03/26 03:52:41;;;;;;;42.15;26.67;;;;;;;;;;4949370;28;20858;-79
2022/03/26 03:55:06;;;;;;;45.25;27.30;;;;;;;;;;4961114;28;20039;-78
2022/03/26 03:57:32;;;;;;;41.47;25.27;;;;;;;;;;4959731;28;20070;-79
2022/03/26 03:59:57;;;;;;;43.58;26.23;;;;;;;;;;4947001;28;20046;-78
2022/03/26 04:02:22;;;;;;;42.22;25.55;;;;;;;;;;4960388;28;20090;-78
2022/03/26 04:04:48;;;;;;;40.90;26.80;;;;;;;;;;4946030;28;20053;-78
2022/03/26 04:07:13;;;;;;;45.78;26.88;;;;;;;;;;4961566;28;20031;-78
2022/03/26 04:09:38;;;;;;;41.08;25.70;;;;;;;;;;4948612;28;20081;-79
2022/03/26 04:12:04;;;;;;;43.03;26.88;;;;;;;;;;4946871;28;20117;-78
2022/03/26 04:14:31;;;;;;;43.25;25.27;;;;;;;;;;4960782;28;20047;-78
2022/03/26 04:16:57;;;;;;;44.83;27.60;;;;;;;;;;4946917;28;20082;-78
2022/03/26 04:19:22;;;;;;;44.75;27.30;;;;;;;;;;4960005;28;20493;-78
2022/03/26 04:21:48;;;;;;;44.63;26.58;;;;;;;;;;4962580;28;20101;-79
2022/03/26 04:24:13;;;;;;;46.67;26.17;;;;;;;;;;4965039;28;20391;-79
2022/03/26 04:26:39;;;;;;;47.60;26.40;;;;;;;;;;4953337;28;20042;-78
2022/03/26 04:29:04;;;;;;;44.15;26.73;;;;;;;;;;4944366;28;20035;-78
2022/03/26 04:31:29;;;;;;;45.83;27.55;;;;;;;;;;4944568;28;20049;-78
2022/03/26 04:33:55;;;;;;;46.15;27.30;;;;;;;;;;4948920;28;20089;-78
2022/03/26 04:36:20;;;;;;;43.22;26.52;;;;;;;;;;4945320;28;20118;-79
2022/03/26 04:38:46;;;;;;;48.63;27.75;;;;;;;;;;4958390;28;20035;-78
2022/03/26 04:41:12;;;;;;;45.80;28.02;;;;;;;;;;4958952;28;20721;-78
2022/03/26 04:43:37;;;;;;;46.08;28.48;;;;;;;;;;4947689;28;20090;-79
2022/03/26 04:46:03;;;;;;;44.78;28.30;;;;;;;;;;4953865;28;20089;-79
2022/03/26 04:48:29;;;;;;;45.75;28.27;;;;;;;;;;4958925;28;20130;-79
2022/03/26 04:50:54;;;;;;;46.03;27.98;;;;;;;;;;4947974;28;20585;-78
2022/03/26 04:53:19;;;;;;;46.30;27.90;;;;;;;;;;4949678;28;20051;-78
2022/03/26 04:55:45;;;;;;;45.10;27.42;;;;;;;;;;4944599;28;20042;-79
2022/03/26 04:58:10;;;;;;;46.45;27.00;;;;;;;;;;4944992;28;20529;-79
2022/03/26 05:00:35;;;;;;;53.30;28.60;;;;;;;;;;4945170;28;20046;-78
2022/03/26 05:03:01;;;;;;;47.90;28.33;;;;;;;;;;4952456;28;20059;-78
2022/03/26 05:05:26;;;;;;;51.42;30.35;;;;;;;;;;4963473;28;20070;-79
2022/03/26 05:07:55;;;;;;;48.78;29.45;;;;;;;;;;4962234;28;20031;-79
2022/03/26 05:10:27;;;;;;;49.58;28.52;;;;;;;;;;4942001;28;20055;-79
2022/03/26 05:12:53;;;;;;;52.13;29.08;;;;;;;;;;4943204;28;20474;-80
2022/03/26 05:15:21;;;;;;;49.00;29.33;;;;;;;;;;4964099;28;20126;-79
2022/03/26 05:17:46;;;;;;;;;;;;;;;;;;4960589;28;20911;-79
2022/03/26 05:20:12;;;;;;;48.78;29.55;;;;;;;;;;4944483;28;20010;-79
2022/03/26 05:22:41;;;;;;;52.90;30.80;;;;;;;;;;4963943;28;20127;-79
2022/03/26 05:25:07;;;;;;;51.13;31.15;;;;;;;;;;4961224;28;20065;-79
2022/03/26 05:27:33;;;;;;;49.50;30.58;;;;;;;;;;4964277;28;20058;-78
2022/03/26 05:29:58;;;;;;;53.28;30.73;;;;;;;;;;4970666;28;20038;-78
2022/03/26 05:32:23;;;;;;;53.15;31.23;;;;;;;;;;4948516;28;20101;-80
2022/03/26 05:34:50;;;;;;;51.60;30.73;;;;;;;;;;4948991;28;20035;-78
2022/03/26 05:37:16;;;;;;;49.60;30.98;;;;;;;;;;4943531;28;20038;-79
2022/03/26 05:39:42;;;;;;;55.85;31.95;;;;;;;;;;4959655;28;20502;-79
2022/03/26 05:42:07;;;;;;;49.67;31.17;;;;;;;;;;4943743;28;20030;-77
2022/03/26 05:44:32;;;;;;;53.20;31.55;;;;;;;;;;4946502;28;20050;-78
2022/03/26 05:46:58;;;;;;;55.28;30.92;;;;;;;;;;4960785;28;20624;-78
2022/03/26 05:49:24;;;;;;;52.42;31.33;;;;;;;;;;4947417;28;20126;-78
2022/03/26 05:51:55;;;;;;;50.72;30.92;;;;;;;;;;4962579;28;20123;-78
2022/03/26 05:54:21;;;;;;;51.50;31.48;;;;;;;;;;4939839;28;20042;-77
2022/03/26 05:56:52;;;;;;;52.08;31.38;;;;;;;;;;4947176;28;20083;-77
2022/03/26 05:59:23;;;;;;;57.00;33.03;;;;;;;;;;4960630;28;20114;-78
2022/03/26 06:01:49;;;;;;;53.13;32.05;;;;;;;;;;4949736;28;20066;-77
2022/03/26 06:04:15;;;;;;;53.17;31.67;;;;;;;;;;4950501;28;20110;-78
2022/03/26 06:06:41;;;;;;;55.40;31.58;;;;;;;;;;4947520;28;20580;-77
2022/03/26 06:09:07;;;;;;;51.70;30.10;;;;;;;;;;4964302;28;20513;-77
2022/03/26 06:11:32;;;;;;;57.42;30.58;;;;;;;;;;4948127;28;20066;-77
2022/03/26 06:13:58;;;;;;;53.33;30.83;;;;;;;;;;4950854;28;20260;-78
2022/03/26 06:16:23;;;;;;;55.13;33.03;;;;;;;;;;4965819;28;20069;-79
2022/03/26 06:18:48;;;;;;;58.08;32.03;;;;;;;;;;4935165;28;20046;-78
2022/03/26 06:21:14;;;;;;;51.58;31.27;;;;;;;;;;4961080;28;20490;-77
2022/03/26 06:23:39;;;;;;;51.10;31.30;;;;;;;;;;4948710;28;20109;-79
2022/03/26 06:26:05;;;;;;;54.53;31.63;;;;;;;;;;4963249;28;20434;-78
2022/03/26 06:28:30;;;;;;;52.00;30.15;;;;;;;;;;4952105;28;20441;-78
2022/03/26 06:30:55;;;;;;;50.50;30.77;;;;;;;;;;4957292;28;20039;-78
2022/03/26 06:33:22;;;;;;;56.85;32.25;;;;;;;;;;4952084;28;20065;-78
2022/03/26 06:35:48;;;;;;;48.63;30.67;;;;;;;;;;4967497;28;20109;-77
2022/03/26 06:38:13;;;;;;;49.75;30.25;;;;;;;;;;4949321;28;20130;-78
2022/03/26 06:40:39;;;;;;;49.40;30.27;;;;;;;;;;4940266;28;20031;-78
2022/03/26 06:43:06;;;;;;;48.92;29.40;;;;;;;;;;4950921;28;20030;-77
2022/03/26 06:45:31;;;;;;;51.25;29.90;;;;;;;;;;4962149;28;20031;-77
2022/03/26 06:47:57;;;;;;;46.28;30.30;;;;;;;;;;4949379;28;20037;-77
2022/03/26 06:50:22;;;;;;;50.60;29.35;;;;;;;;;;4950446;28;20066;-78
2022/03/26 06:52:48;;;;;;;47.13;28.63;;;;;;;;;;4949079;28;20057;-78
2022/03/26 06:55:13;;;;;;;45.45;28.42;;;;;;;;;;4949674;28;20039;-78
2022/03/26 06:57:41;;;;;;;46.83;28.98;;;;;;;;;;4945600;28;20039;-79
2022/03/26 07:00:09;;;;;;;46.17;27.92;;;;;;;;;;4965118;28;20023;-79
2022/03/26 07:02:35;;;;;;;40.60;27.08;;;;;;;;;;4950185;28;20046;-78
2022/03/26 07:05:01;;;;;;;44.92;27.65;;;;;;;;;;4959519;28;20619;-77
2022/03/26 07:07:26;;;;;;;42.47;27.85;;;;;;;;;;4960082;28;20038;-78
2022/03/26 07:09:51;;;;;;;43.15;26.20;;;;;;;;;;4944607;28;20039;-77
2022/03/26 07:12:18;;;;;;;39.65;26.25;;;;;;;;;;4950481;28;20398;-77
2022/03/26 07:14:44;;;;;;;40.60;25.67;;;;;;;;;;4955028;28;20041;-78
2022/03/26 07:17:09;;;;;;;36.97;24.10;;;;;;;;;;4949753;28;20034;-78
2022/03/26 07:19:34;;;;;;;42.47;25.02;;;;;;;;;;4947606;28;20043;-78
2022/03/26 07:22:00;;;;;;;36.58;24.67;;;;;;;;;;4955247;28;20042;-77
2022/03/26 07:24:25;;;;;;;36.90;24.17;;;;;;;;;;4960820;28;20061;-78
2022/03/26 07:26:51;;;;;;;36.60;24.73;;;;;;;;;;4955506;28;20508;-78
2022/03/26 07:29:16;;;;;;;37.63;25.02;;;;;;;;;;4962500;28;20035;-78
2022/03/26 07:31:41;;;;;;;37.08;23.80;;;;;;;;;;4960649;28;20047;-79
2022/03/26 07:34:07;;;;;;;38.83;24.25;;;;;;;;;;4949227;28;20069;-78
2022/03/26 07:36:32;;;;;;;39.53;25.15;;;;;;;;;;4951877;28;20937;-78
2022/03/26 07:38:58;;;;;;;37.25;23.65;;;;;;;;;;4962719;28;20042;-78
2022/03/26 07:41:23;;;;;;;36.22;24.30;;;;;;;;;;4946483;28;20471;-78
2022/03/26 07:43:49;;;;;;;38.55;22.80;;;;;;;;;;4950190;28;20744;-78
2022/03/26 07:46:18;;;;;;;33.92;23.77;;;;;;;;;;4960689;28;20046;-79
2022/03/26 07:48:43;;;;;;;34.30;23.38;;;;;;;;;;4947919;28;20046;-80
2022/03/26 07:51:08;;;;;;;37.92;24.40;;;;;;;;;;4965181;28;20511;-81
2022/03/26 07:53:34;;;;;;;38.17;24.60;;;;;;;;;;4947093;28;20454;-82
2022/03/26 07:56:00;;;;;;;34.53;22.35;;;;;;;;;;4965568;28;20549;-80
2022/03/26 07:58:26;;;;;;;36.72;23.80;;;;;;;;;;4960710;28;20047;-80
2022/03/26 08:00:51;;;;;;;34.30;23.60;;;;;;;;;;4963716;28;20039;-80
2022/03/26 08:03:17;;;;;;;36.10;22.08;;;;;;;;;;4944724;28;20070;-81
2022/03/26 08:05:42;;;;;;;36.25;22.67;;;;;;;;;;4960971;28;20832;-80
2022/03/26 08:08:07;;;;;;;32.38;21.00;;;;;;;;;;4960885;28;20035;-81
2022/03/26 08:10:33;;;;;;;36.85;23.27;;;;;;;;;;4947469;28;20534;-81
2022/03/26 08:12:58;;;;;;;34.55;23.08;;;;;;;;;;4959364;28;20043;-80
2022/03/26 08:15:23;;;;;;;30.08;20.48;;;;;;;;;;4960788;28;20035;-80
2022/03/26 08:17:49;;;;;;;33.70;22.25;;;;;;;;;;4949385;28;20034;-80
2022/03/26 08:20:14;;;;;;;31.23;21.42;;;;;;;;;;4943523;28;20042;-80
2022/03/26 08:22:41;;;;;;;32.22;21.10;;;;;;;;;;4949031;28;20499;-81
2022/03/26 08:25:09;;;;;;;30.42;21.58;;;;;;;;;;4962429;28;20035;-79
2022/03/26 08:27:35;;;;;;;32.55;21.95;;;;;;;;;;4960271;28;20437;-80
2022/03/26 08:30:00;;;;;;;30.92;20.58;;;;;;;;;;4945818;28;20043;-79
2022/03/26 08:32:26;;;;;;;28.20;19.95;;;;;;;;;;4963184;28;20590;-76
2022/03/26 08:34:51;;;;;;;28.83;20.33;;;;;;;;;;4948591;28;20445;-76
2022/03/26 08:37:17;;;;;;;30.42;20.08;;;;;;;;;;4958129;28;20038;-76
2022/03/26 08:39:42;;;;;;;29.83;19.80;;;;;;;;;;4947769;28;20043;-77
2022/03/26 08:42:07;;;;;;;28.05;19.67;;;;;;;;;;4961152;28;20101;-77
2022/03/26 08:44:33;;;;;;;26.45;19.13;;;;;;;;;;4961813;28;21136;-76
2022/03/26 08:47:02;;;;;;;24.20;18.67;;;;;;;;;;4945677;28;20049;-77
2022/03/26 08:49:28;;;;;;;25.75;17.77;;;;;;;;;;4940927;28;20045;-77
2022/03/26 08:51:54;;;;;;;25.08;17.02;;;;;;;;;;4956417;28;20041;-77
2022/03/26 08:54:19;;;;;;;25.38;16.85;;;;;;;;;;4956725;28;20109;-76
2022/03/26 08:56:45;;;;;;;24.35;16.20;;;;;;;;;;4962225;28;20039;-78
2022/03/26 08:59:10;;;;;;;22.23;15.18;;;;;;;;;;4972405;28;20525;-77
2022/03/26 09:01:36;;;;;;;20.50;14.02;;;;;;;;;;4959599;28;20041;-77
2022/03/26 09:04:02;;;;;;;16.30;12.75;;;;;;;;;;4944731;28;20039;-77
2022/03/26 09:06:28;;;;;;;20.55;14.30;;;;;;;;;;4963345;28;20035;-77
2022/03/26 09:08:53;;;;;;;18.60;13.45;;;;;;;;;;4957921;28;20690;-77
2022/03/26 09:11:18;;;;;;;19.90;13.88;;;;;;;;;;4959891;28;20031;-77
2022/03/26 09:13:45;;;;;;;21.02;14.07;;;;;;;;;;4943976;28;20042;-77
2022/03/26 09:16:13;;;;;;;20.88;13.18;;;;;;;;;;4961857;28;20042;-77
2022/03/26 09:18:38;;;;;;;19.92;13.73;;;;;;;;;;4963668;28;20038;-77
2022/03/26 09:21:04;;;;;;;20.30;14.15;;;;;;;;;;4941878;28;20407;-76
2022/03/26 09:23:30;;;;;;;20.38;13.05;;;;;;;;;;4959965;28;20446;-77
2022/03/26 09:25:56;;;;;;;19.20;13.30;;;;;;;;;;4959227;28;20113;-77
2022/03/26 09:28:21;;;;;;;24.15;13.45;;;;;;;;;;4960096;28;20034;-77
2022/03/26 09:30:46;;;;;;;18.85;13.55;;;;;;;;;;4959791;28;21319;-77
2022/03/26 09:33:12;;;;;;;21.35;14.25;;;;;;;;;;4960380;28;20767;-77
2022/03/26 09:35:37;;;;;;;19.35;13.80;;;;;;;;;;4944670;28;20065;-78
2022/03/26 09:38:02;;;;;;;18.38;12.88;;;;;;;;;;4961026;28;20069;-76
2022/03/26 09:40:28;;;;;;;19.27;12.98;;;;;;;;;;4962615;28;20039;-77
2022/03/26 09:42:54;;;;;;;17.50;11.77;;;;;;;;;;4965716;28;20046;-78
2022/03/26 09:45:19;;;;;;;17.92;11.73;;;;;;;;;;4965311;28;20035;-78
2022/03/26 09:47:45;;;;;;;18.10;12.45;;;;;;;;;;4949735;28;20086;-77
2022/03/26 09:50:11;;;;;;;15.57;11.10;;;;;;;;;;4952378;28;20097;-77
2022/03/26 09:52:37;;;;;;;17.00;12.35;;;;;;;;;;4951048;28;20031;-78
2022/03/26 09:55:03;;;;;;;17.33;10.82;;;;;;;;;;4964349;28;20438;-78
2022/03/26 09:57:29;;;;;;;28.55;12.38;;;;;;;;;;4952083;28;20050;-78
2022/03/26 09:59:58;;;;;;;15.35;12.15;;;;;;;;;;4962997;28;20401;-78
2022/03/26 10:02:24;;;;;;;18.85;12.52;;;;;;;;;;4963777;28;20031;-77
2022/03/26 10:04:49;;;;;;;17.98;12.57;;;;;;;;;;4964072;28;20461;-79
2022/03/26 10:07:14;;;;;;;16.98;12.02;;;;;;;;;;4947640;28;20043;-79
2022/03/26 10:09:48;;;;;;;17.67;12.15;;;;;;;;;;4964202;28;20079;-79
2022/03/26 10:12:18;;;;;;;19.13;12.38;;;;;;;;;;4964304;28;20470;-79
2022/03/26 10:14:53;;;;;;;18.92;11.55;;;;;;;;;;4949315;28;20490;-79
2022/03/26 10:17:31;;;;;;;17.85;12.15;;;;;;;;;;4949489;28;20563;-79
2022/03/26 10:19:58;;;;;;;17.23;12.13;;;;;;;;;;4950414;28;20390;-79
2022/03/26 10:22:35;;;;;;;15.73;11.52;;;;;;;;;;4963389;28;20039;-78
2022/03/26 10:25:02;;;;;;;20.57;12.40;;;;;;;;;;4956523;28;20122;-79
2022/03/26 10:27:31;;;;;;;18.83;12.57;;;;;;;;;;4970789;28;20045;-80
2022/03/26 10:29:59;;;;;;;18.10;12.48;;;;;;;;;;4947302;28;20354;-79
2022/03/26 10:32:43;;;;;;;21.63;13.55;;;;;;;;;;4941002;28;20058;-79
2022/03/26 10:35:08;;;;;;;21.85;14.25;;;;;;;;;;4947682;28;20094;-79
2022/03/26 10:37:47;;;;;;;19.33;13.85;;;;;;;;;;4963958;28;20046;-79
2022/03/26 10:40:18;;;;;;;23.63;13.43;;;;;;;;;;4965451;28;20123;-80
2022/03/26 10:42:43;;;;;;;23.75;14.45;;;;;;;;;;4962211;28;20061;-80
2022/03/26 10:45:17;;;;;;;21.90;13.57;;;;;;;;;;4961697;28;20039;-79
2022/03/26 10:47:43;;;;;;;23.02;14.57;;;;;;;;;;4960749;28;20082;-78
2022/03/26 10:50:08;;;;;;;21.38;13.98;;;;;;;;;;4945046;28;20109;-80
2022/03/26 10:52:37;;;;;;;22.75;14.88;;;;;;;;;;4953609;28;20105;-79
2022/03/26 10:55:13;;;;;;;22.35;14.20;;;;;;;;;;4945265;28;20035;-79
2022/03/26 10:57:39;;;;;;;21.63;14.40;;;;;;;;;;4950223;28;20545;-78
2022/03/26 11:00:05;;;;;;;22.17;14.75;;;;;;;;;;4952955;28;20035;-78
2022/03/26 11:02:31;;;;;;;20.77;15.05;;;;;;;;;;4941868;28;20045;-79
2022/03/26 11:04:56;;;;;;;20.05;14.75;;;;;;;;;;4960449;28;20470;-80
2022/03/26 11:07:23;;;;;;;22.48;15.32;;;;;;;;;;4947631;28;20039;-79
2022/03/26 11:09:48;;;;;;;20.35;14.57;;;;;;;;;;4949935;28;20486;-80
2022/03/26 11:12:14;;;;;;;22.13;14.70;;;;;;;;;;4964360;28;20062;-79
2022/03/26 11:14:40;;;;;;;20.60;13.77;;;;;;;;;;4949220;28;20045;-78
2022/03/26 11:17:06;;;;;;;22.40;14.48;;;;;;;;;;4961948;28;20117;-78
2022/03/26 11:19:46;;;;;;;20.70;14.57;;;;;;;;;;4962211;28;20134;-79
2022/03/26 11:22:20;;;;;;;22.02;14.27;;;;;;;;;;4960661;28;20295;-79
2022/03/26 11:25:22;;;;;;;26.90;15.13;;;;;;;;;;4962862;28;20435;-78
2022/03/26 11:28:03;;;;;;;23.33;14.55;;;;;;;;;;4964749;28;20034;-79
2022/03/26 11:31:05;;;;;;;20.92;14.75;;;;;;;;;;4961111;28;20060;-79
2022/03/26 11:33:35;;;;;;;21.73;14.40;;;;;;;;;;4959972;28;20031;-79
2022/03/26 11:36:03;;;;;;;21.23;15.25;;;;;;;;;;4975447;28;20791;-79
2022/03/26 11:38:31;;;;;;;23.13;16.42;;;;;;;;;;4955673;28;20219;-79
2022/03/26 11:41:05;;;;;;;22.88;15.02;;;;;;;;;;4945044;28;20022;-79
2022/03/26 11:43:42;;;;;;;25.23;16.30;;;;;;;;;;4959885;28;20153;-78
2022/03/26 11:51:37;;;;;;;23.77;17.33;;;;;;;;;;4951485;28;20057;-79
2022/03/26 11:54:13;;;;;;;25.02;16.52;;;;;;;;;;4946194;28;20039;-79
2022/03/26 11:56:38;;;;;;;25.48;16.95;;;;;;;;;;4947062;28;20129;-79
2022/03/26 11:59:03;;;;;;;21.27;14.82;;;;;;;;;;4956904;28;20039;-78
2022/03/26 12:01:40;;;;;;;22.40;15.60;;;;;;;;;;4962723;28;20118;-79
2022/03/26 12:04:16;;;;;;;24.05;16.40;;;;;;;;;;4962327;28;20066;-79
2022/03/26 12:06:54;;;;;;;25.10;15.52;;;;;;;;;;4945439;28;20039;-79
2022/03/26 12:09:29;;;;;;;20.52;15.90;;;;;;;;;;4962194;28;20042;-79
2022/03/26 12:12:08;;;;;;;22.20;16.23;;;;;;;;;;4962627;28;20043;-80
2022/03/26 12:14:34;;;;;;;24.35;16.83;;;;;;;;;;4973057;28;20035;-79
2022/03/26 12:17:00;;;;;;;22.92;16.50;;;;;;;;;;4957353;28;20049;-79
2022/03/26 12:19:49;;;;;;;23.58;16.30;;;;;;;;;;4960461;28;20039;-79
2022/03/26 12:22:26;;;;;;;23.95;16.90;;;;;;;;;;4962825;28;20498;-79
2022/03/26 12:24:53;;;;;;;26.48;17.38;;;;;;;;;;4960407;28;20035;-79
2022/03/26 12:27:19;;;;;;;24.17;17.10;;;;;;;;;;4947170;28;20038;-78
2022/03/26 12:29:44;;;;;;;21.77;16.70;;;;;;;;;;4950176;28;20498;-79
2022/03/26 12:32:10;;;;;;;24.83;17.40;;;;;;;;;;4946504;28;20045;-80
2022/03/26 12:35:02;;;;;;;27.00;17.83;;;;;;;;;;4972938;28;20038;-79
2022/03/26 12:37:28;;;;;;;25.10;17.70;;;;;;;;;;4960232;28;20110;-79
2022/03/26 12:39:54;;;;;;;24.83;18.20;;;;;;;;;;4947270;28;20038;-80
2022/03/26 12:42:20;;;;;;;24.40;17.58;;;;;;;;;;4961391;28;20046;-79
2022/03/26 12:44:46;;;;;;;24.80;17.77;;;;;;;;;;4943859;28;20045;-79
2022/03/26 12:47:21;;;;;;;28.38;18.75;;;;;;;;;;4942619;28;20042;-78
2022/03/26 12:49:47;;;;;;;26.13;18.27;;;;;;;;;;4963359;28;20349;-79
2022/03/26 12:52:19;;;;;;;27.75;19.02;;;;;;;;;;4959720;28;21063;-80
2022/03/26 12:54:52;;;;;;;30.25;18.50;;;;;;;;;;4955628;28;20133;-79
2022/03/26 12:57:17;;;;;;;29.95;20.20;;;;;;;;;;4955064;28;20434;-78
2022/03/26 12:59:51;;;;;;;27.15;19.60;;;;;;;;;;4960212;28;20047;-80
2022/03/26 13:02:16;;;;;;;30.52;20.92;;;;;;;;;;4946477;28;20523;-78
2022/03/26 13:04:41;;;;;;;30.83;21.42;;;;;;;;;;4963252;28;20039;-78
2022/03/26 13:07:07;;;;;;;32.42;21.60;;;;;;;;;;4942177;28;20043;-78
2022/03/26 13:09:35;;;;;;;32.35;22.20;;;;;;;;;;4958485;28;20418;-78
2022/03/26 13:12:00;;;;;;;33.72;22.23;;;;;;;;;;4960953;28;20066;-77
2022/03/26 13:14:26;;;;;;;36.03;23.23;;;;;;;;;;4951551;28;20518;-78
2022/03/26 13:16:52;;;;;;;33.10;22.38;;;;;;;;;;4947188;28;20130;-77
2022/03/26 13:19:18;;;;;;;34.58;22.67;;;;;;;;;;4947928;28;20045;-77
2022/03/26 13:21:45;;;;;;;32.28;22.30;;;;;;;;;;4947024;28;20409;-79
2022/03/26 13:24:11;;;;;;;31.38;22.02;;;;;;;;;;4961896;28;20118;-79
2022/03/26 13:26:44;;;;;;;32.40;22.20;;;;;;;;;;4945524;28;20035;-77
2022/03/26 13:29:10;;;;;;;33.55;22.17;;;;;;;;;;4974143;28;20718;-78
2022/03/26 13:31:41;;;;;;;32.30;21.83;;;;;;;;;;4962079;28;20043;-77
2022/03/26 13:34:10;;;;;;;32.85;21.65;;;;;;;;;;4943024;28;20058;-78
2022/03/26 13:36:36;;;;;;;30.42;21.20;;;;;;;;;;4946975;28;20177;-79
2022/03/26 13:39:13;;;;;;;30.83;21.27;;;;;;;;;;4956516;28;20118;-79
2022/03/26 13:41:38;;;;;;;32.88;21.48;;;;;;;;;;4964055;28;20410;-78
2022/03/26 13:44:04;;;;;;;33.13;20.95;;;;;;;;;;4949566;28;20035;-78
2022/03/26 13:46:31;;;;;;;34.50;21.73;;;;;;;;;;4945500;28;20046;-79
2022/03/26 13:48:57;;;;;;;30.67;20.55;;;;;;;;;;4952898;28;20054;-78
2022/03/26 13:51:24;;;;;;;32.70;21.67;;;;;;;;;;4962541;28;20043;-78
2022/03/26 13:53:50;;;;;;;33.08;21.15;;;;;;;;;;4941260;28;20046;-78
2022/03/26 13:56:15;;;;;;;29.27;19.40;;;;;;;;;;4943899;28;20509;-78
2022/03/26 13:58:43;;;;;;;30.88;19.58;;;;;;;;;;4945813;28;20039;-78
2022/03/26 14:01:09;;;;;;;30.30;19.55;;;;;;;;;;4957486;28;20051;-77
2022/03/26 14:03:39;;;;;;;28.95;17.95;;;;;;;;;;4959030;28;20062;-78
2022/03/26 14:06:04;;;;;;;25.98;17.83;;;;;;;;;;4933609;28;20423;-78
2022/03/26 14:08:29;;;;;;;26.95;17.13;;;;;;;;;;4958037;28;20114;-81
2022/03/26 14:10:55;;;;;;;25.10;15.90;;;;;;;;;;4943549;28;20126;-78
2022/03/26 14:13:21;;;;;;;24.42;16.10;;;;;;;;;;4960567;28;20565;-78
2022/03/26 14:15:49;;;;;;;23.15;15.40;;;;;;;;;;4946205;28;20039;-78
2022/03/26 14:18:15;;;;;;;20.50;14.23;;;;;;;;;;4952309;28;20037;-78
2022/03/26 14:20:41;;;;;;;25.23;14.45;;;;;;;;;;4958217;28;20031;-79
2022/03/26 14:23:11;;;;;;;22.35;13.73;;;;;;;;;;4948873;28;20039;-78